Time;durP1;ratioP1;P1;durP2;ratioP2;P2;SDS_P1;SDS_P2;PMS_P1;PMS_P2;Temp;Humidity;BMP_temperature;BMP_pressure;BME280_temperature;BME280_humidity;BME280_pressure;Samples;Min_cycle;Max_cycle;Signal;HPM_P1;HPM_P2
2021/10/03 00:02:12;;;;;;;8.02;6.90;;;16.50;99.90;;;;;;4981747;28;20145;-67
2021/10/03 00:04:42;;;;;;;9.57;7.13;;;16.50;99.90;;;;;;4962286;28;20142;-67
2021/10/03 00:07:10;;;;;;;12.57;7.45;;;16.60;99.90;;;;;;4977582;28;20078;-68
2021/10/03 00:09:38;;;;;;;7.70;6.90;;;16.60;99.90;;;;;;4983936;28;20057;-69
2021/10/03 00:12:05;;;;;;;8.32;6.97;;;16.50;99.90;;;;;;5000188;28;20137;-68
2021/10/03 00:14:32;;;;;;;8.40;6.53;;;16.50;99.90;;;;;;4998038;28;20462;-69
2021/10/03 00:16:59;;;;;;;7.95;7.20;;;16.50;99.90;;;;;;4997753;28;20485;-70
2021/10/03 00:19:28;;;;;;;9.23;7.82;;;16.50;99.90;;;;;;4998402;28;20053;-69
2021/10/03 00:21:56;;;;;;;7.53;6.22;;;16.50;99.90;;;;;;4997887;28;20149;-67
2021/10/03 00:24:24;;;;;;;8.15;6.90;;;16.50;99.90;;;;;;4995613;28;20046;-69
2021/10/03 00:26:50;;;;;;;10.45;7.70;;;16.50;99.90;;;;;;4960906;28;20053;-68
2021/10/03 00:29:17;;;;;;;9.80;7.13;;;16.50;99.90;;;;;;4962260;28;20442;-68
2021/10/03 00:31:45;;;;;;;9.45;7.65;;;16.50;99.90;;;;;;4970823;28;20046;-70
2021/10/03 00:34:11;;;;;;;6.88;6.18;;;16.50;99.90;;;;;;4978143;28;20072;-69
2021/10/03 00:36:38;;;;;;;10.13;7.53;;;16.60;99.90;;;;;;4978201;28;20061;-69
2021/10/03 00:39:05;;;;;;;9.30;7.05;;;16.60;99.90;;;;;;4979076;28;20048;-68
2021/10/03 00:41:33;;;;;;;7.80;6.57;;;16.60;99.90;;;;;;4990541;28;20053;-68
2021/10/03 00:44:00;;;;;;;8.60;7.70;;;16.60;99.90;;;;;;4999447;28;20050;-68
2021/10/03 00:46:27;;;;;;;8.20;7.40;;;16.60;99.90;;;;;;4996708;28;20053;-69
2021/10/03 00:48:54;;;;;;;10.35;7.38;;;16.60;99.90;;;;;;4965576;28;20049;-70
2021/10/03 00:51:21;;;;;;;8.88;7.40;;;16.60;99.90;;;;;;4994153;28;20046;-70
2021/10/03 00:53:48;;;;;;;8.85;7.90;;;16.60;99.90;;;;;;4992487;28;20058;-69
2021/10/03 00:56:15;;;;;;;10.65;8.07;;;16.60;99.90;;;;;;4981303;28;20412;-68
2021/10/03 00:58:43;;;;;;;9.80;7.25;;;16.70;99.90;;;;;;4993444;28;20535;-68
2021/10/03 01:01:11;;;;;;;10.40;8.88;;;16.70;99.90;;;;;;4993332;28;20262;-69
2021/10/03 01:03:39;;;;;;;9.07;8.18;;;16.80;99.90;;;;;;4982044;28;20049;-69
2021/10/03 01:06:07;;;;;;;9.70;8.68;;;16.90;99.90;;;;;;4999402;28;20054;-69
2021/10/03 01:08:35;;;;;;;12.20;8.25;;;16.90;99.90;;;;;;4994224;28;20148;-68
2021/10/03 01:11:04;;;;;;;8.93;8.02;;;16.90;99.90;;;;;;4978206;28;20068;-69
2021/10/03 01:13:31;;;;;;;10.07;9.13;;;17.00;99.90;;;;;;4993302;28;20145;-68
2021/10/03 01:15:58;;;;;;;9.45;8.63;;;17.00;99.90;;;;;;4977121;28;20062;-69
2021/10/03 01:18:26;;;;;;;8.98;8.13;;;17.00;99.90;;;;;;4977826;28;20042;-69
2021/10/03 01:20:53;;;;;;;9.30;8.40;;;17.00;99.90;;;;;;4989215;28;20526;-69
2021/10/03 01:23:20;;;;;;;9.23;8.45;;;17.00;99.90;;;;;;4997916;28;20049;-70
2021/10/03 01:25:50;;;;;;;8.93;8.20;;;17.10;99.90;;;;;;4981815;28;20046;-69
2021/10/03 01:28:18;;;;;;;9.68;8.25;;;17.10;99.90;;;;;;4996581;28;20046;-68
2021/10/03 01:30:49;;;;;;;9.68;7.68;;;17.10;99.90;;;;;;4977850;28;20073;-70
2021/10/03 01:33:16;;;;;;;9.73;8.55;;;17.10;99.90;;;;;;4975243;28;20053;-71
2021/10/03 01:35:45;;;;;;;8.75;8.05;;;17.10;99.90;;;;;;4978812;28;20503;-69
2021/10/03 01:38:14;;;;;;;8.90;8.10;;;17.10;99.90;;;;;;4980214;28;20061;-69
2021/10/03 01:40:46;;;;;;;9.85;8.82;;;17.10;99.90;;;;;;4996927;28;20049;-71
2021/10/03 01:43:14;;;;;;;9.38;7.90;;;17.10;99.90;;;;;;4998591;28;20127;-72
2021/10/03 01:45:41;;;;;;;8.35;7.50;;;17.10;99.90;;;;;;4997144;28;20100;-71
2021/10/03 01:48:15;;;;;;;9.70;8.30;;;17.10;99.90;;;;;;4964590;28;20058;-69
2021/10/03 01:50:47;;;;;;;8.80;7.78;;;17.00;99.90;;;;;;4993720;28;20435;-70
2021/10/03 01:53:17;;;;;;;8.63;7.82;;;17.10;99.90;;;;;;4998199;28;20332;-69
2021/10/03 01:55:44;;;;;;;7.88;7.18;;;17.00;99.90;;;;;;4988395;28;20053;-69
2021/10/03 01:58:15;;;;;;;8.90;8.13;;;17.00;99.90;;;;;;4977135;28;20065;-71
2021/10/03 02:00:45;;;;;;;8.10;7.40;;;17.10;99.90;;;;;;4961993;28;20054;-70
2021/10/03 02:03:13;;;;;;;8.75;7.97;;;17.10;99.90;;;;;;4992737;28;20060;-70
2021/10/03 02:05:44;;;;;;;9.55;7.55;;;17.10;99.90;;;;;;4978734;28;20058;-70
2021/10/03 02:08:12;;;;;;;8.75;8.00;;;17.10;99.90;;;;;;4969401;28;20050;-70
2021/10/03 02:10:44;;;;;;;8.90;8.05;;;17.10;99.90;;;;;;4979135;28;20058;-68
2021/10/03 02:13:11;;;;;;;10.20;9.15;;;17.10;99.90;;;;;;4978910;28;20509;-69
2021/10/03 02:15:40;;;;;;;9.23;8.35;;;17.10;99.90;;;;;;4977086;28;20056;-70
2021/10/03 02:18:10;;;;;;;9.02;8.23;;;17.10;99.90;;;;;;4981822;28;20126;-71
2021/10/03 02:20:38;;;;;;;9.18;8.27;;;17.10;99.90;;;;;;4996317;28;20057;-69
2021/10/03 02:23:07;;;;;;;9.45;8.63;;;17.10;99.90;;;;;;4964397;28;20053;-69
2021/10/03 02:25:43;;;;;;;9.43;8.63;;;17.10;99.90;;;;;;4984420;28;20062;-72
2021/10/03 02:28:15;;;;;;;8.85;8.13;;;17.20;99.90;;;;;;4994450;28;20061;-71
2021/10/03 02:30:43;;;;;;;9.68;8.00;;;17.10;99.90;;;;;;4993342;28;20050;-69
2021/10/03 02:33:10;;;;;;;8.65;7.97;;;17.20;99.90;;;;;;4985241;28;20089;-69
2021/10/03 02:35:40;;;;;;;9.52;7.78;;;17.20;99.90;;;;;;5003098;28;20046;-70
2021/10/03 02:38:12;;;;;;;9.27;8.30;;;17.10;99.90;;;;;;4990349;28;20049;-66
2021/10/03 02:40:41;;;;;;;9.13;8.32;;;17.10;99.90;;;;;;4996320;28;20054;-71
2021/10/03 02:43:08;;;;;;;9.85;8.93;;;17.10;99.90;;;;;;4995722;28;20200;-70
2021/10/03 02:45:39;;;;;;;8.63;7.93;;;17.10;99.90;;;;;;4996093;28;20046;-67
2021/10/03 02:48:06;;;;;;;9.15;8.25;;;17.10;99.90;;;;;;4994633;28;20060;-71
2021/10/03 02:50:33;;;;;;;8.98;8.20;;;17.20;99.90;;;;;;4963383;28;20045;-69
2021/10/03 02:53:02;;;;;;;10.88;8.65;;;17.10;99.90;;;;;;4999525;28;20122;-72
2021/10/03 02:55:29;;;;;;;10.88;8.27;;;17.10;99.90;;;;;;4997173;28;20042;-69
2021/10/03 02:57:56;;;;;;;10.20;8.68;;;17.10;99.90;;;;;;4981349;28;20050;-70
2021/10/03 03:00:23;;;;;;;12.23;7.90;;;17.10;99.90;;;;;;4949794;28;20057;-70
2021/10/03 03:02:50;;;;;;;8.60;7.72;;;17.10;99.90;;;;;;4985212;28;20062;-70
2021/10/03 03:05:17;;;;;;;9.18;8.27;;;17.10;99.90;;;;;;4997782;28;20123;-66
2021/10/03 03:07:43;;;;;;;9.75;7.60;;;17.10;99.90;;;;;;4998248;28;20127;-67
2021/10/03 03:10:11;;;;;;;11.75;8.57;;;17.10;99.90;;;;;;4981824;28;20053;-69
2021/10/03 03:12:37;;;;;;;9.45;8.52;;;17.10;99.90;;;;;;5000071;28;20574;-68
2021/10/03 03:15:08;;;;;;;10.00;8.00;;;17.10;99.90;;;;;;4998609;28;20085;-68
2021/10/03 03:17:36;;;;;;;9.75;8.73;;;17.10;99.90;;;;;;4995165;28;20406;-69
2021/10/03 03:20:05;;;;;;;8.77;7.45;;;17.10;99.90;;;;;;4998053;28;20057;-68
2021/10/03 03:22:33;;;;;;;10.07;8.25;;;17.10;99.90;;;;;;4997985;28;20160;-69
2021/10/03 03:25:00;;;;;;;9.18;7.82;;;17.10;99.90;;;;;;4991805;28;20482;-69
2021/10/03 03:27:27;;;;;;;9.52;8.60;;;17.10;99.90;;;;;;4983285;28;20146;-68
2021/10/03 03:29:54;;;;;;;10.23;9.05;;;17.10;99.90;;;;;;4979844;28;20271;-70
2021/10/03 03:32:21;;;;;;;9.10;8.20;;;17.10;99.90;;;;;;4988983;28;20112;-68
2021/10/03 03:34:48;;;;;;;9.40;8.50;;;17.10;99.90;;;;;;4996763;28;20425;-71
2021/10/03 03:37:14;;;;;;;12.63;7.95;;;17.10;99.90;;;;;;4986900;28;20411;-67
2021/10/03 03:39:41;;;;;;;8.82;7.93;;;17.10;99.90;;;;;;4999559;28;20061;-69
2021/10/03 03:42:08;;;;;;;9.48;8.55;;;17.10;99.90;;;;;;4998070;28;20073;-68
2021/10/03 03:44:35;;;;;;;10.32;8.52;;;17.10;99.90;;;;;;4999816;28;20083;-71
2021/10/03 03:47:03;;;;;;;9.63;7.78;;;17.10;99.90;;;;;;4995397;28;20049;-68
2021/10/03 03:49:30;;;;;;;9.00;8.10;;;17.10;99.90;;;;;;4999822;28;20050;-69
2021/10/03 03:51:57;;;;;;;10.93;8.50;;;17.00;99.90;;;;;;4994104;28;20521;-68
2021/10/03 03:54:24;;;;;;;8.52;7.70;;;17.00;99.90;;;;;;4998633;28;20119;-70
2021/10/03 03:56:51;;;;;;;8.38;7.50;;;17.00;99.90;;;;;;4994477;28;20060;-69
2021/10/03 03:59:18;;;;;;;7.93;6.82;;;17.00;99.90;;;;;;4981338;28;20621;-69
2021/10/03 04:01:44;;;;;;;10.00;8.27;;;17.00;99.90;;;;;;4966555;28;20050;-69
2021/10/03 04:04:11;;;;;;;9.55;8.55;;;17.00;99.90;;;;;;4987917;28;20062;-70
2021/10/03 04:06:38;;;;;;;9.13;8.25;;;17.00;99.90;;;;;;4973865;28;20150;-70
2021/10/03 04:09:06;;;;;;;10.25;8.70;;;17.00;99.90;;;;;;4961956;28;20053;-69
2021/10/03 04:11:33;;;;;;;9.02;8.13;;;17.00;99.90;;;;;;4993987;28;20482;-71
2021/10/03 04:14:00;;;;;;;10.60;8.38;;;17.00;99.90;;;;;;4962493;28;20047;-68
2021/10/03 04:16:27;;;;;;;10.73;8.57;;;17.00;99.90;;;;;;4992448;28;20486;-69
2021/10/03 04:18:53;;;;;;;9.77;8.77;;;17.00;99.90;;;;;;4998802;28;20506;-68
2021/10/03 04:21:20;;;;;;;12.18;8.90;;;17.00;99.90;;;;;;4979884;28;20077;-68
2021/10/03 04:23:47;;;;;;;9.63;8.57;;;17.00;99.90;;;;;;4997141;28;20509;-68
2021/10/03 04:26:14;;;;;;;11.48;9.00;;;17.00;99.90;;;;;;4998556;28;20530;-69
2021/10/03 04:28:41;;;;;;;9.68;8.77;;;17.10;99.90;;;;;;4980220;28;20034;-69
2021/10/03 04:31:09;;;;;;;10.23;9.35;;;17.10;99.90;;;;;;4992957;28;20413;-70
2021/10/03 04:33:40;;;;;;;10.88;9.77;;;17.20;99.90;;;;;;4980861;28;20191;-69
2021/10/03 04:36:09;;;;;;;10.63;9.73;;;17.20;99.90;;;;;;5001956;28;20054;-69
2021/10/03 04:38:37;;;;;;;10.00;9.20;;;17.30;99.90;;;;;;4979092;28;20081;-66
2021/10/03 04:41:07;;;;;;;10.93;9.82;;;17.40;99.90;;;;;;4997032;28;20333;-70
2021/10/03 04:43:34;;;;;;;13.07;9.95;;;17.50;99.90;;;;;;5014428;28;20046;-71
2021/10/03 04:46:00;;;;;;;11.25;9.80;;;17.50;99.90;;;;;;4996062;28;20058;-69
2021/10/03 04:48:27;;;;;;;10.70;9.68;;;17.50;99.90;;;;;;4998904;28;20061;-66
2021/10/03 04:50:54;;;;;;;10.95;9.95;;;17.50;99.90;;;;;;4996356;28;20056;-68
2021/10/03 04:53:21;;;;;;;11.13;9.82;;;17.60;99.90;;;;;;4980288;28;20049;-67
2021/10/03 04:55:48;;;;;;;11.57;10.38;;;17.60;99.90;;;;;;4989785;28;20042;-71
2021/10/03 04:58:15;;;;;;;12.10;10.65;;;17.70;99.90;;;;;;4994603;28;20045;-68
2021/10/03 05:00:41;;;;;;;11.07;10.07;;;17.70;99.90;;;;;;4989360;28;20050;-68
2021/10/03 05:03:08;;;;;;;12.15;10.10;;;17.70;99.90;;;;;;5012598;28;20058;-70
2021/10/03 05:05:36;;;;;;;17.10;10.15;;;17.80;99.90;;;;;;4998001;28;20044;-68
2021/10/03 05:08:04;;;;;;;12.27;11.27;;;17.80;99.90;;;;;;4995012;28;20518;-69
2021/10/03 05:10:31;;;;;;;12.45;11.05;;;17.80;99.90;;;;;;4996667;28;20053;-69
2021/10/03 05:12:58;;;;;;;11.80;10.52;;;17.90;99.90;;;;;;4996923;28;20054;-69
2021/10/03 05:15:25;;;;;;;11.63;10.35;;;18.00;99.90;;;;;;4996300;28;20049;-69
2021/10/03 05:17:52;;;;;;;12.77;10.63;;;17.90;99.90;;;;;;4994495;28;20046;-68
2021/10/03 05:20:18;;;;;;;11.40;10.45;;;18.00;99.90;;;;;;4997428;28;20142;-71
2021/10/03 05:22:45;;;;;;;11.73;10.63;;;18.00;99.90;;;;;;4978722;28;20495;-68
2021/10/03 05:25:12;;;;;;;12.13;10.93;;;17.90;99.90;;;;;;4996267;28;20053;-71
2021/10/03 05:27:39;;;;;;;11.52;10.50;;;18.00;99.90;;;;;;4990040;28;20054;-69
2021/10/03 05:30:07;;;;;;;11.75;10.95;;;18.00;99.90;;;;;;4959544;28;20057;-69
2021/10/03 05:32:34;;;;;;;11.75;10.93;;;18.10;99.90;;;;;;4997950;28;20052;-69
2021/10/03 05:35:00;;;;;;;12.05;11.15;;;18.10;99.90;;;;;;4965348;28;20364;-70
2021/10/03 05:37:27;;;;;;;11.43;10.43;;;18.10;99.90;;;;;;4976574;28;20046;-68
2021/10/03 05:39:55;;;;;;;10.82;10.02;;;18.10;99.90;;;;;;4996301;28;20056;-68
2021/10/03 05:42:22;;;;;;;11.43;10.60;;;18.10;99.90;;;;;;4963466;28;20045;-70
2021/10/03 05:44:49;;;;;;;10.50;9.70;;;18.20;99.90;;;;;;4996311;28;20501;-70
2021/10/03 05:47:16;;;;;;;11.90;10.80;;;18.20;99.90;;;;;;4978870;28;20371;-70
2021/10/03 05:49:46;;;;;;;11.90;10.93;;;18.20;99.90;;;;;;4995309;28;20517;-69
2021/10/03 05:52:13;;;;;;;11.88;10.88;;;18.20;99.90;;;;;;4995174;28;20410;-72
2021/10/03 05:54:40;;;;;;;11.77;10.90;;;18.10;99.90;;;;;;4997054;28;20054;-68
2021/10/03 05:57:07;;;;;;;11.73;10.82;;;18.20;99.90;;;;;;4972802;28;20620;-71
2021/10/03 05:59:33;;;;;;;10.95;9.95;;;18.20;99.90;;;;;;4991297;28;20050;-69
2021/10/03 06:02:00;;;;;;;12.25;11.23;;;18.20;99.90;;;;;;4970774;28;20149;-69
2021/10/03 06:04:27;;;;;;;10.95;9.95;;;18.20;99.90;;;;;;4966051;28;20053;-71
2021/10/03 06:06:54;;;;;;;12.13;11.07;;;18.20;99.90;;;;;;4996223;28;20050;-69
2021/10/03 06:09:21;;;;;;;12.15;10.95;;;18.20;99.90;;;;;;4944007;28;20054;-68
2021/10/03 06:11:48;;;;;;;11.65;10.70;;;18.30;99.90;;;;;;4974911;28;20047;-70
2021/10/03 06:14:15;;;;;;;12.60;11.40;;;18.30;99.90;;;;;;4983063;28;20054;-69
2021/10/03 06:16:42;;;;;;;11.82;10.98;;;18.30;99.90;;;;;;4980928;28;20057;-70
2021/10/03 06:19:10;;;;;;;12.52;11.43;;;18.30;99.90;;;;;;4977653;28;20042;-68
2021/10/03 06:21:39;;;;;;;12.30;11.32;;;18.30;99.90;;;;;;4972602;28;20514;-68
2021/10/03 06:24:07;;;;;;;12.88;11.88;;;18.40;99.90;;;;;;4962165;28;20318;-72
2021/10/03 06:26:34;;;;;;;12.00;11.10;;;18.40;99.90;;;;;;4988858;28;20046;-71
2021/10/03 06:29:03;;;;;;;12.48;11.38;;;18.40;99.90;;;;;;4981940;28;20074;-69
2021/10/03 06:31:31;;;;;;;12.93;11.88;;;18.30;99.90;;;;;;4995520;28;20076;-69
2021/10/03 06:33:58;;;;;;;12.70;11.65;;;18.40;99.90;;;;;;4983586;28;20116;-69
2021/10/03 06:36:25;;;;;;;11.73;10.82;;;18.40;99.90;;;;;;4995882;28;20045;-68
2021/10/03 06:38:52;;;;;;;12.93;11.85;;;18.40;99.90;;;;;;4998874;28;20162;-70
2021/10/03 06:41:19;;;;;;;12.52;11.48;;;18.40;99.90;;;;;;4999915;28;20058;-69
2021/10/03 06:43:46;;;;;;;11.52;10.43;;;18.40;99.90;;;;;;5002056;28;20049;-71
2021/10/03 06:46:13;;;;;;;13.20;12.10;;;18.40;99.90;;;;;;4997495;28;20350;-70
2021/10/03 06:48:40;;;;;;;12.52;11.63;;;18.40;99.90;;;;;;4962806;28;20137;-69
2021/10/03 06:51:07;;;;;;;11.98;11.07;;;18.40;99.90;;;;;;4977655;28;20043;-68
2021/10/03 06:53:34;;;;;;;11.93;10.98;;;18.40;99.90;;;;;;4981543;28;20046;-70
2021/10/03 06:56:02;;;;;;;13.57;11.57;;;18.50;99.90;;;;;;4971312;28;20074;-71
2021/10/03 06:58:29;;;;;;;12.32;11.32;;;18.50;99.90;;;;;;4984746;28;20574;-72
2021/10/03 07:00:56;;;;;;;11.82;10.93;;;18.50;99.90;;;;;;4967192;28;20058;-69
2021/10/03 07:03:23;;;;;;;12.35;11.25;;;18.50;99.90;;;;;;4958878;28;20463;-72
2021/10/03 07:05:50;;;;;;;11.85;10.93;;;18.50;99.90;;;;;;4982774;28;20365;-70
2021/10/03 07:08:16;;;;;;;12.32;11.32;;;18.50;99.90;;;;;;4999552;28;20145;-70
2021/10/03 07:10:43;;;;;;;11.75;11.00;;;18.50;99.90;;;;;;4996939;28;20042;-70
2021/10/03 07:13:11;;;;;;;11.95;11.15;;;18.50;99.90;;;;;;5001021;28;20291;-70
2021/10/03 07:15:38;;;;;;;11.38;10.60;;;18.50;99.90;;;;;;5000733;28;20641;-69
2021/10/03 07:18:05;;;;;;;11.13;10.43;;;18.50;99.90;;;;;;4983415;28;20053;-71
2021/10/03 07:20:32;;;;;;;12.13;11.02;;;18.50;99.90;;;;;;4980159;28;20065;-74
2021/10/03 07:22:59;;;;;;;11.30;10.50;;;18.50;99.90;;;;;;4967035;28;20057;-70
2021/10/03 07:25:26;;;;;;;11.98;11.18;;;18.50;99.90;;;;;;4983039;28;20073;-71
2021/10/03 07:27:53;;;;;;;11.50;10.77;;;18.50;99.90;;;;;;4973841;28;20030;-70
2021/10/03 07:30:20;;;;;;;11.43;10.52;;;18.60;99.90;;;;;;4980032;28;20149;-70
2021/10/03 07:32:47;;;;;;;11.43;10.63;;;18.60;99.90;;;;;;4996116;28;20046;-69
2021/10/03 07:35:13;;;;;;;11.35;10.65;;;18.60;99.90;;;;;;4982208;28;20046;-70
2021/10/03 07:37:40;;;;;;;12.13;10.95;;;18.70;99.90;;;;;;5000296;28;20057;-70
2021/10/03 07:40:08;;;;;;;11.13;10.32;;;18.70;99.90;;;;;;4999228;28;20061;-72
2021/10/03 07:42:36;;;;;;;11.18;10.48;;;18.60;99.90;;;;;;4997687;28;20049;-71
2021/10/03 07:45:04;;;;;;;11.40;10.50;;;18.60;99.90;;;;;;4963015;28;20073;-69
2021/10/03 07:47:31;;;;;;;11.60;10.68;;;18.70;99.90;;;;;;4992576;28;20470;-72
2021/10/03 07:49:58;;;;;;;11.90;10.93;;;18.70;99.90;;;;;;4996571;28;20057;-71
2021/10/03 07:52:25;;;;;;;11.05;10.32;;;18.80;99.90;;;;;;4985638;28;20423;-68
2021/10/03 07:54:52;;;;;;;11.23;10.23;;;18.80;99.90;;;;;;4962180;28;20057;-72
2021/10/03 07:57:19;;;;;;;11.52;10.63;;;18.80;99.90;;;;;;4978715;28;20038;-71
2021/10/03 07:59:46;;;;;;;11.50;10.63;;;18.80;99.90;;;;;;4997821;28;20065;-67
2021/10/03 08:02:13;;;;;;;11.93;11.02;;;18.90;99.90;;;;;;4971985;28;20060;-70
2021/10/03 08:04:40;;;;;;;11.27;10.57;;;19.00;99.90;;;;;;4993519;28;20046;-70
2021/10/03 08:07:07;;;;;;;11.32;10.35;;;19.00;99.90;;;;;;4993199;28;20127;-71
2021/10/03 08:09:34;;;;;;;11.50;10.70;;;19.10;99.90;;;;;;4990817;28;20245;-71
2021/10/03 08:12:01;;;;;;;11.98;10.88;;;19.10;99.90;;;;;;4979331;28;20524;-72
2021/10/03 08:14:28;;;;;;;12.43;11.52;;;19.10;99.90;;;;;;4999387;28;20509;-70
2021/10/03 08:16:55;;;;;;;11.82;10.68;;;19.10;99.90;;;;;;4995490;28;20072;-70
2021/10/03 08:19:21;;;;;;;12.00;11.20;;;19.10;99.90;;;;;;4999236;28;20520;-71
2021/10/03 08:21:48;;;;;;;12.38;11.10;;;19.10;99.90;;;;;;4996380;28;20457;-69
2021/10/03 08:24:15;;;;;;;11.25;10.48;;;19.10;99.90;;;;;;4998470;28;20067;-73
2021/10/03 08:26:47;;;;;;;11.77;11.02;;;19.10;99.90;;;;;;4995287;28;20056;-68
2021/10/03 08:29:14;;;;;;;11.85;10.95;;;19.10;99.90;;;;;;4987895;28;20068;-69
2021/10/03 08:31:41;;;;;;;11.50;10.70;;;19.20;99.90;;;;;;4984771;28;20140;-71
2021/10/03 08:34:11;;;;;;;10.98;10.30;;;19.20;99.90;;;;;;4994728;28;20042;-70
2021/10/03 08:36:38;;;;;;;10.23;9.52;;;19.20;99.90;;;;;;4996899;28;20506;-69
2021/10/03 08:39:05;;;;;;;10.60;10.00;;;19.10;99.90;;;;;;4997736;28;20042;-70
2021/10/03 08:41:32;;;;;;;11.02;10.32;;;19.20;99.90;;;;;;4996171;28;20054;-70
2021/10/03 08:43:59;;;;;;;11.70;10.70;;;19.20;99.90;;;;;;4998362;28;20042;-67
2021/10/03 08:46:27;;;;;;;11.80;10.90;;;19.20;99.90;;;;;;4961741;28;20129;-70
2021/10/03 08:48:55;;;;;;;11.05;10.40;;;19.30;99.90;;;;;;4997131;28;20401;-69
2021/10/03 08:51:23;;;;;;;11.10;10.50;;;19.30;99.90;;;;;;4961397;28;20042;-69
2021/10/03 08:53:51;;;;;;;11.88;10.82;;;19.30;99.90;;;;;;4997452;28;20050;-71
2021/10/03 08:56:17;;;;;;;11.88;11.07;;;19.30;99.90;;;;;;4979347;28;20518;-72
2021/10/03 08:58:44;;;;;;;12.23;11.43;;;19.30;99.90;;;;;;4993206;28;20546;-70
2021/10/03 09:01:13;;;;;;;11.95;11.20;;;19.40;99.90;;;;;;4976539;28;20438;-71
2021/10/03 09:03:41;;;;;;;11.43;10.63;;;19.40;99.90;;;;;;4993608;28;20085;-70
2021/10/03 09:06:09;;;;;;;11.20;10.55;;;19.40;99.90;;;;;;4980281;28;20048;-69
2021/10/03 09:08:42;;;;;;;12.18;11.43;;;19.40;99.90;;;;;;4972607;28;20148;-71
2021/10/03 09:11:14;;;;;;;11.75;10.95;;;19.40;99.90;;;;;;4979574;28;20041;-71
2021/10/03 09:13:46;;;;;;;12.27;10.82;;;19.40;99.90;;;;;;4998327;28;20046;-69
2021/10/03 09:16:32;;;;;;;10.90;10.20;;;19.50;99.90;;;;;;4995946;28;20526;-68
2021/10/03 09:19:02;;;;;;;10.43;9.63;;;19.50;99.90;;;;;;4995834;28;20048;-69
2021/10/03 09:21:29;;;;;;;11.32;10.63;;;19.50;99.90;;;;;;4979392;28;20052;-67
2021/10/03 09:24:13;;;;;;;10.50;10.00;;;19.50;99.90;;;;;;4996244;28;20060;-69
2021/10/03 09:26:52;;;;;;;11.25;10.50;;;19.50;99.90;;;;;;4996539;28;20469;-71
2021/10/03 09:29:25;;;;;;;11.88;11.15;;;19.50;99.90;;;;;;4989870;28;20049;-72
2021/10/03 09:32:06;;;;;;;11.50;10.80;;;19.40;99.90;;;;;;4986930;28;20298;-71
2021/10/03 09:34:34;;;;;;;10.32;9.65;;;19.40;99.90;;;;;;4984406;28;20506;-70
2021/10/03 09:37:26;;;;;;;11.70;10.93;;;19.40;99.90;;;;;;4959741;28;20357;-70
2021/10/03 09:40:15;;;;;;;11.80;11.00;;;19.40;99.90;;;;;;4970412;28;20042;-69
2021/10/03 09:43:02;;;;;;;11.27;10.50;;;19.40;99.90;;;;;;4995832;28;20056;-71
2021/10/03 09:45:32;;;;;;;11.65;10.85;;;19.50;99.90;;;;;;4991831;28;20085;-69
2021/10/03 09:48:01;;;;;;;11.63;10.93;;;19.50;99.90;;;;;;4994732;28;20379;-71
2021/10/03 09:50:29;;;;;;;12.05;11.25;;;19.50;99.90;;;;;;4994598;28;20042;-71
2021/10/03 09:52:57;;;;;;;10.82;10.20;;;19.50;99.90;;;;;;4996380;28;20349;-72
2021/10/03 09:55:27;;;;;;;11.27;10.57;;;19.60;99.90;;;;;;4995378;28;20054;-70
2021/10/03 09:57:55;;;;;;;11.30;10.60;;;19.50;99.90;;;;;;4985933;28;20053;-71
2021/10/03 10:00:26;;;;;;;12.02;11.10;;;19.50;99.90;;;;;;4966630;28;20045;-71
2021/10/03 10:02:54;;;;;;;11.23;10.32;;;19.60;99.90;;;;;;4975590;28;20046;-71
2021/10/03 10:05:24;;;;;;;11.65;10.88;;;19.60;99.90;;;;;;4978859;28;20219;-71
2021/10/03 10:07:52;;;;;;;12.13;11.30;;;19.60;99.90;;;;;;4979475;28;20084;-70
2021/10/03 10:10:20;;;;;;;11.43;10.68;;;19.60;99.90;;;;;;4996773;28;20049;-71
2021/10/03 10:12:57;;;;;;;11.13;10.38;;;19.60;99.90;;;;;;4996615;28;20046;-69
2021/10/03 10:15:25;;;;;;;11.35;10.73;;;19.70;99.90;;;;;;4979720;28;20330;-68
2021/10/03 10:17:52;;;;;;;11.65;10.85;;;19.70;99.90;;;;;;4996210;28;20050;-69
2021/10/03 10:20:24;;;;;;;11.27;10.55;;;19.70;99.90;;;;;;4994075;28;20053;-67
2021/10/03 10:23:08;;;;;;;12.15;11.27;;;19.70;99.90;;;;;;4989068;28;20122;-70
2021/10/03 10:25:41;;;;;;;12.60;11.70;;;19.70;99.90;;;;;;4979768;28;20070;-72
2021/10/03 10:28:11;;;;;;;12.50;11.60;;;19.70;99.90;;;;;;4984976;28;20544;-72
2021/10/03 10:31:03;;;;;;;12.23;11.23;;;19.70;99.90;;;;;;4991360;28;20487;-72
2021/10/03 10:33:57;;;;;;;12.00;11.10;;;19.70;99.90;;;;;;4981815;28;20601;-71
2021/10/03 10:36:28;;;;;;;11.10;10.30;;;19.70;99.90;;;;;;4976569;28;20406;-71
2021/10/03 10:39:07;;;;;;;12.43;11.20;;;19.70;99.90;;;;;;4976064;28;20515;-71
2021/10/03 10:41:44;;;;;;;10.68;10.07;;;19.70;99.90;;;;;;4982494;28;20449;-70
2021/10/03 10:44:34;;;;;;;12.70;11.55;;;19.60;99.90;;;;;;4979754;28;20081;-71
2021/10/03 10:47:07;;;;;;;11.98;10.98;;;19.60;99.90;;;;;;4992485;28;20050;-73
2021/10/03 10:49:43;;;;;;;11.85;11.15;;;19.60;99.90;;;;;;4996690;28;20061;-70
2021/10/03 10:52:19;;;;;;;11.65;10.95;;;19.60;99.90;;;;;;4994776;28;20128;-74
2021/10/03 10:55:10;;;;;;;11.75;10.95;;;19.70;99.90;;;;;;4979374;28;20497;-70
2021/10/03 10:57:49;;;;;;;11.40;10.73;;;19.60;99.90;;;;;;4988013;28;20069;-70
2021/10/03 11:00:24;;;;;;;11.85;10.95;;;19.70;99.90;;;;;;4990430;28;20046;-71
2021/10/03 11:03:02;;;;;;;12.20;11.35;;;19.60;99.90;;;;;;4989519;28;20502;-70
2021/10/03 11:05:35;;;;;;;10.82;10.23;;;19.60;99.90;;;;;;4997616;28;20068;-71
2021/10/03 11:08:15;;;;;;;11.52;10.73;;;19.60;99.90;;;;;;4995480;28;20414;-72
2021/10/03 11:10:57;;;;;;;11.88;10.93;;;19.50;99.90;;;;;;4993763;28;20050;-73
2021/10/03 11:13:47;;;;;;;11.75;10.55;;;19.50;99.90;;;;;;4999237;28;20451;-71
2021/10/03 11:16:35;;;;;;;11.52;10.82;;;19.50;99.90;;;;;;4982860;28;20557;-72
2021/10/03 11:19:11;;;;;;;11.88;10.95;;;19.50;99.90;;;;;;4998564;28;20050;-69
2021/10/03 11:21:43;;;;;;;10.82;10.15;;;19.40;99.90;;;;;;4997397;28;20046;-72
2021/10/03 11:24:15;;;;;;;11.25;10.32;;;19.40;99.90;;;;;;4981898;28;20057;-70
2021/10/03 11:26:50;;;;;;;11.23;10.43;;;19.40;99.90;;;;;;4996308;28;20058;-70
2021/10/03 11:29:18;;;;;;;11.37;10.67;;;19.40;99.90;;;;;;4990697;28;20283;-70
2021/10/03 11:32:00;;;;;;;10.93;9.93;;;19.40;99.90;;;;;;4986951;28;20424;-72
2021/10/03 11:34:37;;;;;;;11.80;10.90;;;19.40;99.90;;;;;;4983490;28;20046;-68
2021/10/03 11:37:16;;;;;;;11.75;10.95;;;19.30;99.90;;;;;;4978349;28;20054;-69
2021/10/03 11:39:57;;;;;;;12.18;11.02;;;19.30;99.90;;;;;;4980765;28;20057;-69
2021/10/03 11:42:40;;;;;;;10.98;10.27;;;19.30;99.90;;;;;;4980530;28;20068;-70
2021/10/03 11:45:13;;;;;;;11.30;10.40;;;19.30;99.90;;;;;;4990696;28;20052;-72
2021/10/03 11:47:46;;;;;;;10.07;9.48;;;19.20;99.90;;;;;;4996182;28;20053;-72
2021/10/03 11:50:29;;;;;;;11.55;10.60;;;19.20;99.90;;;;;;4980586;28;20054;-72
2021/10/03 11:53:25;;;;;;;10.45;9.75;;;19.20;99.90;;;;;;4999386;28;20085;-71
2021/10/03 11:56:06;;;;;;;11.38;10.32;;;19.10;99.90;;;;;;4999770;28;20053;-71
2021/10/03 11:58:41;;;;;;;10.63;9.93;;;19.20;99.90;;;;;;4984461;28;20109;-71
2021/10/03 12:01:09;;;;;;;11.73;10.77;;;19.20;99.90;;;;;;4981248;28;20103;-72
2021/10/03 12:03:47;;;;;;;11.20;9.77;;;19.10;99.90;;;;;;4962997;28;20122;-71
2021/10/03 12:06:32;;;;;;;11.32;10.35;;;19.20;99.90;;;;;;4991240;28;20058;-73
2021/10/03 12:09:10;;;;;;;10.55;9.73;;;19.20;99.90;;;;;;4997591;28;20061;-71
2021/10/03 12:11:49;;;;;;;11.80;10.93;;;19.30;99.90;;;;;;4978262;28;20077;-70
2021/10/03 12:14:16;;;;;;;11.32;10.45;;;19.30;99.90;;;;;;5000198;28;20045;-70
2021/10/03 12:16:53;;;;;;;11.38;10.57;;;19.30;99.90;;;;;;4998833;28;20042;-71
2021/10/03 12:19:20;;;;;;;11.70;10.80;;;19.30;99.90;;;;;;4965664;28;20122;-69
2021/10/03 12:21:47;;;;;;;11.20;10.27;;;19.30;99.90;;;;;;4995821;28;20396;-69
2021/10/03 12:24:14;;;;;;;12.13;11.20;;;19.40;99.90;;;;;;4979511;28;20403;-69
2021/10/03 12:26:52;;;;;;;14.27;12.88;;;19.40;99.90;;;;;;4994680;28;20058;-70
2021/10/03 12:29:22;;;;;;;10.98;10.23;;;19.40;99.90;;;;;;4986393;28;20108;-71
2021/10/03 12:32:00;;;;;;;12.13;11.32;;;19.50;99.90;;;;;;4983328;28;20481;-71
2021/10/03 12:34:28;;;;;;;12.13;11.43;;;19.40;99.90;;;;;;4978434;28;20054;-71
2021/10/03 12:37:19;;;;;;;10.90;10.10;;;19.40;99.90;;;;;;4978923;28;20069;-71
2021/10/03 12:39:51;;;;;;;11.20;10.40;;;19.40;99.90;;;;;;4981498;28;20061;-70
2021/10/03 12:42:24;;;;;;;11.15;10.55;;;19.40;99.90;;;;;;4995368;28;20080;-66
2021/10/03 12:44:53;;;;;;;10.65;9.95;;;19.50;99.90;;;;;;4998442;28;20154;-71
2021/10/03 12:47:20;;;;;;;11.85;11.10;;;19.50;99.90;;;;;;4995890;28;20137;-72